sensor_id;sensor_type;location;lat;lon;timestamp;P1;durP1;ratioP1;P2;durP2;ratioP2
67595;SDS011;54410;48.694;8.934;2023-04-25T00:00:17;13.97;;;7.07;;
67595;SDS011;54410;48.694;8.934;2023-04-25T00:02:43;9.93;;;3.97;;
67595;SDS011;54410;48.694;8.934;2023-04-25T00:05:11;8.17;;;4.93;;
67595;SDS011;54410;48.694;8.934;2023-04-25T00:07:39;5.43;;;3.27;;
67595;SDS011;54410;48.694;8.934;2023-04-25T00:10:07;3.73;;;2.70;;
67595;SDS011;54410;48.694;8.934;2023-04-25T00:12:34;3.40;;;2.20;;
67595;SDS011;54410;48.694;8.934;2023-04-25T00:15:00;4.07;;;2.47;;
67595;SDS011;54410;48.694;8.934;2023-04-25T00:17:26;2.40;;;2.10;;
67595;SDS011;54410;48.694;8.934;2023-04-25T00:19:53;5.33;;;2.43;;
67595;SDS011;54410;48.694;8.934;2023-04-25T00:22:18;2.40;;;2.20;;
67595;SDS011;54410;48.694;8.934;2023-04-25T00:24:44;3.47;;;2.30;;
67595;SDS011;54410;48.694;8.934;2023-04-25T00:27:10;2.13;;;1.97;;
67595;SDS011;54410;48.694;8.934;2023-04-25T00:29:36;3.00;;;2.30;;
67595;SDS011;54410;48.694;8.934;2023-04-25T00:32:02;2.53;;;2.00;;
67595;SDS011;54410;48.694;8.934;2023-04-25T00:34:28;2.50;;;2.30;;
67595;SDS011;54410;48.694;8.934;2023-04-25T00:36:54;4.10;;;2.60;;
67595;SDS011;54410;48.694;8.934;2023-04-25T00:39:20;2.60;;;2.10;;
67595;SDS011;54410;48.694;8.934;2023-04-25T00:41:46;2.27;;;1.80;;
67595;SDS011;54410;48.694;8.934;2023-04-25T00:44:12;2.93;;;2.63;;
67595;SDS011;54410;48.694;8.934;2023-04-25T00:46:39;3.60;;;2.60;;
67595;SDS011;54410;48.694;8.934;2023-04-25T00:49:06;2.60;;;2.10;;
67595;SDS011;54410;48.694;8.934;2023-04-25T00:51:32;2.73;;;2.47;;
67595;SDS011;54410;48.694;8.934;2023-04-25T00:53:58;1.90;;;1.80;;
67595;SDS011;54410;48.694;8.934;2023-04-25T00:56:25;2.87;;;2.03;;
67595;SDS011;54410;48.694;8.934;2023-04-25T00:58:52;1.90;;;1.73;;
67595;SDS011;54410;48.694;8.934;2023-04-25T01:01:22;3.50;;;2.63;;
67595;SDS011;54410;48.694;8.934;2023-04-25T01:03:48;2.30;;;2.10;;
67595;SDS011;54410;48.694;8.934;2023-04-25T01:06:15;3.47;;;2.20;;
67595;SDS011;54410;48.694;8.934;2023-04-25T01:08:41;3.00;;;2.50;;
67595;SDS011;54410;48.694;8.934;2023-04-25T01:11:07;5.23;;;1.97;;
67595;SDS011;54410;48.694;8.934;2023-04-25T01:13:33;2.87;;;2.13;;
67595;SDS011;54410;48.694;8.934;2023-04-25T01:15:59;2.27;;;2.07;;
67595;SDS011;54410;48.694;8.934;2023-04-25T01:18:25;2.87;;;2.57;;
67595;SDS011;54410;48.694;8.934;2023-04-25T01:20:51;2.70;;;2.13;;
67595;SDS011;54410;48.694;8.934;2023-04-25T01:23:18;2.53;;;2.33;;
67595;SDS011;54410;48.694;8.934;2023-04-25T01:25:44;2.43;;;2.23;;
67595;SDS011;54410;48.694;8.934;2023-04-25T01:28:10;3.40;;;2.43;;
67595;SDS011;54410;48.694;8.934;2023-04-25T01:30:37;3.70;;;2.33;;
67595;SDS011;54410;48.694;8.934;2023-04-25T01:33:03;3.77;;;2.90;;
67595;SDS011;54410;48.694;8.934;2023-04-25T01:35:30;3.43;;;2.70;;
67595;SDS011;54410;48.694;8.934;2023-04-25T01:37:57;3.13;;;2.83;;
67595;SDS011;54410;48.694;8.934;2023-04-25T01:40:23;2.90;;;2.60;;
67595;SDS011;54410;48.694;8.934;2023-04-25T01:42:50;4.13;;;2.53;;
67595;SDS011;54410;48.694;8.934;2023-04-25T01:45:16;4.17;;;2.83;;
67595;SDS011;54410;48.694;8.934;2023-04-25T01:47:43;4.37;;;3.17;;
67595;SDS011;54410;48.694;8.934;2023-04-25T01:50:13;3.10;;;2.83;;
67595;SDS011;54410;48.694;8.934;2023-04-25T01:52:39;2.37;;;2.17;;
67595;SDS011;54410;48.694;8.934;2023-04-25T01:55:06;3.97;;;2.40;;
67595;SDS011;54410;48.694;8.934;2023-04-25T01:57:32;4.10;;;2.20;;
67595;SDS011;54410;48.694;8.934;2023-04-25T01:59:58;2.30;;;2.10;;
67595;SDS011;54410;48.694;8.934;2023-04-25T02:02:25;2.00;;;1.90;;
67595;SDS011;54410;48.694;8.934;2023-04-25T02:04:51;2.40;;;2.20;;
67595;SDS011;54410;48.694;8.934;2023-04-25T02:07:17;2.70;;;1.90;;
67595;SDS011;54410;48.694;8.934;2023-04-25T02:09:43;2.13;;;1.93;;
67595;SDS011;54410;48.694;8.934;2023-04-25T02:12:09;2.03;;;1.87;;
67595;SDS011;54410;48.694;8.934;2023-04-25T02:14:36;1.60;;;1.43;;
67595;SDS011;54410;48.694;8.934;2023-04-25T02:17:02;2.90;;;2.20;;
67595;SDS011;54410;48.694;8.934;2023-04-25T02:19:28;1.87;;;1.73;;
67595;SDS011;54410;48.694;8.934;2023-04-25T02:21:54;3.30;;;1.80;;
67595;SDS011;54410;48.694;8.934;2023-04-25T02:24:20;3.93;;;2.17;;
67595;SDS011;54410;48.694;8.934;2023-04-25T02:26:46;2.33;;;1.70;;
67595;SDS011;54410;48.694;8.934;2023-04-25T02:29:12;4.10;;;2.10;;
67595;SDS011;54410;48.694;8.934;2023-04-25T02:31:40;2.20;;;1.90;;
67595;SDS011;54410;48.694;8.934;2023-04-25T02:34:06;2.30;;;2.10;;
67595;SDS011;54410;48.694;8.934;2023-04-25T02:36:31;2.70;;;2.33;;
67595;SDS011;54410;48.694;8.934;2023-04-25T02:38:59;2.77;;;2.20;;
67595;SDS011;54410;48.694;8.934;2023-04-25T02:41:25;1.67;;;1.57;;
67595;SDS011;54410;48.694;8.934;2023-04-25T02:43:51;2.47;;;2.10;;
67595;SDS011;54410;48.694;8.934;2023-04-25T02:46:17;1.90;;;1.80;;
67595;SDS011;54410;48.694;8.934;2023-04-25T02:48:43;3.53;;;2.30;;
67595;SDS011;54410;48.694;8.934;2023-04-25T02:51:09;2.60;;;1.80;;
67595;SDS011;54410;48.694;8.934;2023-04-25T02:53:35;3.53;;;2.20;;
67595;SDS011;54410;48.694;8.934;2023-04-25T02:56:01;4.73;;;2.43;;
67595;SDS011;54410;48.694;8.934;2023-04-25T02:58:27;1.90;;;1.80;;
67595;SDS011;54410;48.694;8.934;2023-04-25T03:00:53;2.40;;;1.83;;
67595;SDS011;54410;48.694;8.934;2023-04-25T03:03:20;2.23;;;2.00;;
67595;SDS011;54410;48.694;8.934;2023-04-25T03:05:49;3.63;;;2.23;;
67595;SDS011;54410;48.694;8.934;2023-04-25T03:08:15;3.20;;;2.47;;
67595;SDS011;54410;48.694;8.934;2023-04-25T03:10:41;4.77;;;2.53;;
67595;SDS011;54410;48.694;8.934;2023-04-25T03:13:07;2.57;;;1.80;;
67595;SDS011;54410;48.694;8.934;2023-04-25T03:15:34;5.67;;;2.60;;
67595;SDS011;54410;48.694;8.934;2023-04-25T03:18:00;2.70;;;2.40;;
67595;SDS011;54410;48.694;8.934;2023-04-25T03:20:26;2.37;;;1.83;;
67595;SDS011;54410;48.694;8.934;2023-04-25T03:22:52;4.00;;;2.37;;
67595;SDS011;54410;48.694;8.934;2023-04-25T03:25:18;3.47;;;2.10;;
67595;SDS011;54410;48.694;8.934;2023-04-25T03:27:44;3.20;;;1.80;;
67595;SDS011;54410;48.694;8.934;2023-04-25T03:30:10;1.93;;;1.83;;
67595;SDS011;54410;48.694;8.934;2023-04-25T03:32:36;5.37;;;2.40;;
67595;SDS011;54410;48.694;8.934;2023-04-25T03:35:02;2.30;;;2.10;;
67595;SDS011;54410;48.694;8.934;2023-04-25T03:37:29;3.07;;;2.43;;
67595;SDS011;54410;48.694;8.934;2023-04-25T03:39:54;2.60;;;2.40;;
67595;SDS011;54410;48.694;8.934;2023-04-25T03:42:20;4.53;;;2.57;;
67595;SDS011;54410;48.694;8.934;2023-04-25T03:44:48;3.20;;;2.70;;
67595;SDS011;54410;48.694;8.934;2023-04-25T03:47:14;4.53;;;2.63;;
67595;SDS011;54410;48.694;8.934;2023-04-25T03:49:39;5.37;;;2.93;;
67595;SDS011;54410;48.694;8.934;2023-04-25T03:52:06;2.37;;;2.17;;
67595;SDS011;54410;48.694;8.934;2023-04-25T03:54:31;4.30;;;2.87;;
67595;SDS011;54410;48.694;8.934;2023-04-25T03:56:57;2.33;;;2.20;;
67595;SDS011;54410;48.694;8.934;2023-04-25T03:59:23;2.60;;;2.27;;
67595;SDS011;54410;48.694;8.934;2023-04-25T04:01:50;4.37;;;2.80;;
67595;SDS011;54410;48.694;8.934;2023-04-25T04:04:17;2.73;;;2.20;;
67595;SDS011;54410;48.694;8.934;2023-04-25T04:06:43;3.20;;;2.90;;
67595;SDS011;54410;48.694;8.934;2023-04-25T04:09:09;2.43;;;2.20;;
67595;SDS011;54410;48.694;8.934;2023-04-25T04:11:36;3.90;;;2.73;;
67595;SDS011;54410;48.694;8.934;2023-04-25T04:14:04;5.07;;;3.00;;
67595;SDS011;54410;48.694;8.934;2023-04-25T04:16:30;2.50;;;2.30;;
67595;SDS011;54410;48.694;8.934;2023-04-25T04:18:56;3.70;;;3.17;;
67595;SDS011;54410;48.694;8.934;2023-04-25T04:21:22;3.90;;;3.43;;
67595;SDS011;54410;48.694;8.934;2023-04-25T04:23:48;5.77;;;3.30;;
67595;SDS011;54410;48.694;8.934;2023-04-25T04:26:14;4.27;;;3.10;;
67595;SDS011;54410;48.694;8.934;2023-04-25T04:28:41;4.97;;;3.43;;
67595;SDS011;54410;48.694;8.934;2023-04-25T04:31:08;4.30;;;3.50;;
67595;SDS011;54410;48.694;8.934;2023-04-25T04:33:35;4.10;;;3.30;;
67595;SDS011;54410;48.694;8.934;2023-04-25T04:36:01;6.13;;;3.37;;
67595;SDS011;54410;48.694;8.934;2023-04-25T04:38:28;4.43;;;3.30;;
67595;SDS011;54410;48.694;8.934;2023-04-25T04:40:54;3.93;;;3.30;;
67595;SDS011;54410;48.694;8.934;2023-04-25T04:43:20;4.03;;;2.80;;
67595;SDS011;54410;48.694;8.934;2023-04-25T04:45:47;6.20;;;3.30;;
67595;SDS011;54410;48.694;8.934;2023-04-25T04:48:14;3.07;;;2.77;;
67595;SDS011;54410;48.694;8.934;2023-04-25T04:50:42;5.33;;;3.07;;
67595;SDS011;54410;48.694;8.934;2023-04-25T04:53:10;2.20;;;2.00;;
67595;SDS011;54410;48.694;8.934;2023-04-25T04:55:36;4.53;;;2.87;;
67595;SDS011;54410;48.694;8.934;2023-04-25T04:58:02;2.50;;;2.23;;
67595;SDS011;54410;48.694;8.934;2023-04-25T05:00:27;2.70;;;2.47;;
67595;SDS011;54410;48.694;8.934;2023-04-25T05:02:55;4.20;;;2.97;;
67595;SDS011;54410;48.694;8.934;2023-04-25T05:05:21;3.70;;;2.30;;
67595;SDS011;54410;48.694;8.934;2023-04-25T05:07:47;2.70;;;2.50;;
67595;SDS011;54410;48.694;8.934;2023-04-25T05:10:13;4.70;;;2.67;;
67595;SDS011;54410;48.694;8.934;2023-04-25T05:12:40;5.17;;;3.20;;
67595;SDS011;54410;48.694;8.934;2023-04-25T05:15:06;3.47;;;3.10;;
67595;SDS011;54410;48.694;8.934;2023-04-25T05:17:32;3.83;;;2.90;;
67595;SDS011;54410;48.694;8.934;2023-04-25T05:19:58;4.30;;;2.80;;
67595;SDS011;54410;48.694;8.934;2023-04-25T05:22:24;6.23;;;3.90;;
67595;SDS011;54410;48.694;8.934;2023-04-25T05:24:51;3.70;;;3.17;;
67595;SDS011;54410;48.694;8.934;2023-04-25T05:27:17;4.80;;;3.50;;
67595;SDS011;54410;48.694;8.934;2023-04-25T05:29:44;3.60;;;2.77;;
67595;SDS011;54410;48.694;8.934;2023-04-25T05:32:10;7.90;;;3.97;;
67595;SDS011;54410;48.694;8.934;2023-04-25T05:34:36;3.67;;;3.07;;
67595;SDS011;54410;48.694;8.934;2023-04-25T05:37:02;6.43;;;3.50;;
67595;SDS011;54410;48.694;8.934;2023-04-25T05:39:28;6.67;;;3.07;;
67595;SDS011;54410;48.694;8.934;2023-04-25T05:41:54;4.20;;;3.00;;
67595;SDS011;54410;48.694;8.934;2023-04-25T05:44:20;5.90;;;3.17;;
67595;SDS011;54410;48.694;8.934;2023-04-25T05:46:46;4.70;;;3.50;;
67595;SDS011;54410;48.694;8.934;2023-04-25T05:49:12;5.23;;;3.37;;
67595;SDS011;54410;48.694;8.934;2023-04-25T05:51:38;5.10;;;3.97;;
67595;SDS011;54410;48.694;8.934;2023-04-25T05:54:04;6.57;;;3.50;;
67595;SDS011;54410;48.694;8.934;2023-04-25T05:56:30;8.20;;;4.07;;
67595;SDS011;54410;48.694;8.934;2023-04-25T05:58:56;4.67;;;3.37;;
67595;SDS011;54410;48.694;8.934;2023-04-25T06:01:22;3.63;;;3.13;;
67595;SDS011;54410;48.694;8.934;2023-04-25T06:03:48;3.90;;;3.40;;
67595;SDS011;54410;48.694;8.934;2023-04-25T06:06:16;4.07;;;3.50;;
67595;SDS011;54410;48.694;8.934;2023-04-25T06:08:42;4.90;;;4.30;;
67595;SDS011;54410;48.694;8.934;2023-04-25T06:11:08;3.80;;;3.13;;
67595;SDS011;54410;48.694;8.934;2023-04-25T06:13:34;6.77;;;4.40;;
67595;SDS011;54410;48.694;8.934;2023-04-25T06:16:00;4.77;;;3.70;;
67595;SDS011;54410;48.694;8.934;2023-04-25T06:18:26;6.90;;;6.20;;
67595;SDS011;54410;48.694;8.934;2023-04-25T06:20:51;4.87;;;4.37;;
67595;SDS011;54410;48.694;8.934;2023-04-25T06:23:17;4.70;;;3.20;;
67595;SDS011;54410;48.694;8.934;2023-04-25T06:25:43;21.73;;;12.13;;
67595;SDS011;54410;48.694;8.934;2023-04-25T06:28:09;9.23;;;4.67;;
67595;SDS011;54410;48.694;8.934;2023-04-25T06:30:35;7.50;;;5.47;;
67595;SDS011;54410;48.694;8.934;2023-04-25T06:33:01;10.53;;;5.90;;
67595;SDS011;54410;48.694;8.934;2023-04-25T06:35:27;10.40;;;5.40;;
67595;SDS011;54410;48.694;8.934;2023-04-25T06:37:53;6.37;;;4.63;;
67595;SDS011;54410;48.694;8.934;2023-04-25T06:40:19;4.83;;;4.07;;
67595;SDS011;54410;48.694;8.934;2023-04-25T06:42:45;4.53;;;3.47;;
67595;SDS011;54410;48.694;8.934;2023-04-25T06:45:11;4.73;;;3.37;;
67595;SDS011;54410;48.694;8.934;2023-04-25T06:47:37;7.23;;;4.23;;
67595;SDS011;54410;48.694;8.934;2023-04-25T06:50:03;9.00;;;4.73;;
67595;SDS011;54410;48.694;8.934;2023-04-25T06:52:30;5.97;;;4.30;;
67595;SDS011;54410;48.694;8.934;2023-04-25T06:54:57;6.33;;;3.73;;
67595;SDS011;54410;48.694;8.934;2023-04-25T06:57:22;6.57;;;3.80;;
67595;SDS011;54410;48.694;8.934;2023-04-25T06:59:48;4.20;;;3.40;;
67595;SDS011;54410;48.694;8.934;2023-04-25T07:02:14;2.97;;;2.70;;
67595;SDS011;54410;48.694;8.934;2023-04-25T07:04:40;3.47;;;3.13;;
67595;SDS011;54410;48.694;8.934;2023-04-25T07:07:06;4.00;;;3.30;;
67595;SDS011;54410;48.694;8.934;2023-04-25T07:09:32;4.13;;;3.47;;
67595;SDS011;54410;48.694;8.934;2023-04-25T07:11:59;3.20;;;2.90;;
67595;SDS011;54410;48.694;8.934;2023-04-25T07:14:26;3.77;;;3.33;;
67595;SDS011;54410;48.694;8.934;2023-04-25T07:16:52;3.73;;;2.70;;
67595;SDS011;54410;48.694;8.934;2023-04-25T07:19:20;3.63;;;2.93;;
67595;SDS011;54410;48.694;8.934;2023-04-25T07:21:46;5.03;;;3.77;;
67595;SDS011;54410;48.694;8.934;2023-04-25T07:24:12;4.17;;;2.97;;
67595;SDS011;54410;48.694;8.934;2023-04-25T07:26:38;4.83;;;3.70;;
67595;SDS011;54410;48.694;8.934;2023-04-25T07:29:04;3.93;;;3.53;;
67595;SDS011;54410;48.694;8.934;2023-04-25T07:31:30;4.33;;;3.53;;
67595;SDS011;54410;48.694;8.934;2023-04-25T07:33:56;3.83;;;3.43;;
67595;SDS011;54410;48.694;8.934;2023-04-25T07:36:22;5.13;;;4.13;;
67595;SDS011;54410;48.694;8.934;2023-04-25T07:38:48;3.60;;;3.30;;
67595;SDS011;54410;48.694;8.934;2023-04-25T07:41:14;4.50;;;3.67;;
67595;SDS011;54410;48.694;8.934;2023-04-25T07:43:40;6.10;;;3.20;;
67595;SDS011;54410;48.694;8.934;2023-04-25T07:46:06;4.33;;;3.30;;
67595;SDS011;54410;48.694;8.934;2023-04-25T07:48:32;4.00;;;3.00;;
67595;SDS011;54410;48.694;8.934;2023-04-25T07:50:58;3.40;;;2.73;;
67595;SDS011;54410;48.694;8.934;2023-04-25T07:53:24;3.67;;;3.30;;
67595;SDS011;54410;48.694;8.934;2023-04-25T07:55:50;3.63;;;3.27;;
67595;SDS011;54410;48.694;8.934;2023-04-25T07:58:16;5.33;;;3.83;;
67595;SDS011;54410;48.694;8.934;2023-04-25T08:00:47;4.73;;;3.83;;
67595;SDS011;54410;48.694;8.934;2023-04-25T08:03:13;5.30;;;4.00;;
67595;SDS011;54410;48.694;8.934;2023-04-25T08:05:39;3.70;;;3.30;;
67595;SDS011;54410;48.694;8.934;2023-04-25T08:08:05;4.97;;;4.30;;
67595;SDS011;54410;48.694;8.934;2023-04-25T08:10:31;4.57;;;3.90;;
67595;SDS011;54410;48.694;8.934;2023-04-25T08:12:58;8.53;;;4.17;;
67595;SDS011;54410;48.694;8.934;2023-04-25T08:15:24;6.37;;;4.70;;
67595;SDS011;54410;48.694;8.934;2023-04-25T08:17:50;5.20;;;3.80;;
67595;SDS011;54410;48.694;8.934;2023-04-25T08:20:16;4.80;;;3.60;;
67595;SDS011;54410;48.694;8.934;2023-04-25T08:22:42;4.63;;;3.40;;
67595;SDS011;54410;48.694;8.934;2023-04-25T08:25:08;5.03;;;3.17;;
67595;SDS011;54410;48.694;8.934;2023-04-25T08:27:34;4.63;;;3.73;;
67595;SDS011;54410;48.694;8.934;2023-04-25T08:30:01;4.03;;;3.23;;
67595;SDS011;54410;48.694;8.934;2023-04-25T08:32:28;3.93;;;3.50;;
67595;SDS011;54410;48.694;8.934;2023-04-25T08:34:54;7.17;;;3.83;;
67595;SDS011;54410;48.694;8.934;2023-04-25T08:37:20;3.77;;;3.47;;
67595;SDS011;54410;48.694;8.934;2023-04-25T08:39:46;4.20;;;3.70;;
67595;SDS011;54410;48.694;8.934;2023-04-25T08:42:13;5.90;;;4.33;;
67595;SDS011;54410;48.694;8.934;2023-04-25T08:44:40;5.43;;;4.47;;
67595;SDS011;54410;48.694;8.934;2023-04-25T08:47:06;7.27;;;4.90;;
67595;SDS011;54410;48.694;8.934;2023-04-25T08:49:32;4.70;;;4.23;;
67595;SDS011;54410;48.694;8.934;2023-04-25T08:52:02;5.57;;;4.17;;
67595;SDS011;54410;48.694;8.934;2023-04-25T08:54:31;4.30;;;3.77;;
67595;SDS011;54410;48.694;8.934;2023-04-25T08:56:57;6.10;;;4.70;;
67595;SDS011;54410;48.694;8.934;2023-04-25T08:59:26;25.57;;;15.67;;
67595;SDS011;54410;48.694;8.934;2023-04-25T09:01:53;7.13;;;5.33;;
67595;SDS011;54410;48.694;8.934;2023-04-25T09:04:19;5.00;;;4.50;;
67595;SDS011;54410;48.694;8.934;2023-04-25T09:06:45;5.00;;;4.30;;
67595;SDS011;54410;48.694;8.934;2023-04-25T09:09:11;4.07;;;3.67;;
67595;SDS011;54410;48.694;8.934;2023-04-25T09:11:38;5.60;;;4.30;;
67595;SDS011;54410;48.694;8.934;2023-04-25T09:16:58;4.23;;;3.00;;
67595;SDS011;54410;48.694;8.934;2023-04-25T09:21:55;3.47;;;3.00;;
67595;SDS011;54410;48.694;8.934;2023-04-25T09:24:40;2.17;;;1.97;;
67595;SDS011;54410;48.694;8.934;2023-04-25T09:27:09;1.80;;;1.70;;
67595;SDS011;54410;48.694;8.934;2023-04-25T09:29:36;1.80;;;1.70;;
67595;SDS011;54410;48.694;8.934;2023-04-25T09:34:45;1.93;;;1.70;;
67595;SDS011;54410;48.694;8.934;2023-04-25T09:37:16;1.50;;;1.40;;
67595;SDS011;54410;48.694;8.934;2023-04-25T09:39:44;1.53;;;1.40;;
67595;SDS011;54410;48.694;8.934;2023-04-25T09:42:10;1.97;;;1.40;;
67595;SDS011;54410;48.694;8.934;2023-04-25T09:44:36;1.20;;;1.10;;
67595;SDS011;54410;48.694;8.934;2023-04-25T09:47:02;1.10;;;1.10;;
67595;SDS011;54410;48.694;8.934;2023-04-25T09:49:28;0.90;;;0.90;;
67595;SDS011;54410;48.694;8.934;2023-04-25T09:51:55;1.30;;;1.20;;
67595;SDS011;54410;48.694;8.934;2023-04-25T09:54:22;1.47;;;0.90;;
67595;SDS011;54410;48.694;8.934;2023-04-25T09:56:48;1.27;;;1.17;;
67595;SDS011;54410;48.694;8.934;2023-04-25T09:59:16;0.60;;;0.60;;
67595;SDS011;54410;48.694;8.934;2023-04-25T10:01:49;0.53;;;0.53;;
67595;SDS011;54410;48.694;8.934;2023-04-25T10:04:20;0.93;;;0.70;;
67595;SDS011;54410;48.694;8.934;2023-04-25T10:06:49;0.70;;;0.70;;
67595;SDS011;54410;48.694;8.934;2023-04-25T10:09:15;0.60;;;0.60;;
67595;SDS011;54410;48.694;8.934;2023-04-25T10:11:43;0.80;;;0.80;;
67595;SDS011;54410;48.694;8.934;2023-04-25T10:14:10;0.87;;;0.70;;
67595;SDS011;54410;48.694;8.934;2023-04-25T10:16:36;0.80;;;0.80;;
67595;SDS011;54410;48.694;8.934;2023-04-25T10:19:03;1.37;;;1.27;;
67595;SDS011;54410;48.694;8.934;2023-04-25T10:21:29;0.50;;;0.50;;
67595;SDS011;54410;48.694;8.934;2023-04-25T10:23:57;0.60;;;0.60;;
67595;SDS011;54410;48.694;8.934;2023-04-25T10:26:23;0.50;;;0.50;;
67595;SDS011;54410;48.694;8.934;2023-04-25T10:28:57;0.63;;;0.63;;
67595;SDS011;54410;48.694;8.934;2023-04-25T10:31:23;0.63;;;0.63;;
67595;SDS011;54410;48.694;8.934;2023-04-25T10:33:49;0.70;;;0.70;;
67595;SDS011;54410;48.694;8.934;2023-04-25T10:36:19;0.50;;;0.50;;
67595;SDS011;54410;48.694;8.934;2023-04-25T10:38:48;0.53;;;0.53;;
67595;SDS011;54410;48.694;8.934;2023-04-25T10:41:21;0.60;;;0.60;;
67595;SDS011;54410;48.694;8.934;2023-04-25T10:43:48;0.57;;;0.57;;
67595;SDS011;54410;48.694;8.934;2023-04-25T10:46:19;1.20;;;1.10;;
67595;SDS011;54410;48.694;8.934;2023-04-25T10:48:48;0.53;;;0.47;;
67595;SDS011;54410;48.694;8.934;2023-04-25T10:51:16;0.50;;;0.50;;
67595;SDS011;54410;48.694;8.934;2023-04-25T10:53:44;0.60;;;0.50;;
67595;SDS011;54410;48.694;8.934;2023-04-25T10:56:19;1.10;;;0.80;;
67595;SDS011;54410;48.694;8.934;2023-04-25T10:58:46;0.50;;;0.50;;
67595;SDS011;54410;48.694;8.934;2023-04-25T11:01:20;0.50;;;0.50;;
67595;SDS011;54410;48.694;8.934;2023-04-25T11:03:46;0.60;;;0.60;;
67595;SDS011;54410;48.694;8.934;2023-04-25T11:08:48;0.60;;;0.60;;
67595;SDS011;54410;48.694;8.934;2023-04-25T11:11:15;0.70;;;0.70;;
67595;SDS011;54410;48.694;8.934;2023-04-25T11:13:41;0.50;;;0.50;;
67595;SDS011;54410;48.694;8.934;2023-04-25T11:16:07;0.70;;;0.70;;
67595;SDS011;54410;48.694;8.934;2023-04-25T11:18:35;1.93;;;1.83;;
67595;SDS011;54410;48.694;8.934;2023-04-25T11:21:00;1.60;;;1.30;;
67595;SDS011;54410;48.694;8.934;2023-04-25T11:23:28;1.30;;;1.20;;
67595;SDS011;54410;48.694;8.934;2023-04-25T11:25:55;2.50;;;1.00;;
67595;SDS011;54410;48.694;8.934;2023-04-25T11:28:21;1.50;;;1.40;;
67595;SDS011;54410;48.694;8.934;2023-04-25T11:30:48;1.90;;;1.77;;
67595;SDS011;54410;48.694;8.934;2023-04-25T11:33:15;3.70;;;2.30;;
67595;SDS011;54410;48.694;8.934;2023-04-25T11:35:41;3.13;;;2.83;;
67595;SDS011;54410;48.694;8.934;2023-04-25T11:38:07;3.20;;;2.27;;
67595;SDS011;54410;48.694;8.934;2023-04-25T11:40:33;2.57;;;2.10;;
67595;SDS011;54410;48.694;8.934;2023-04-25T11:43:01;2.93;;;2.60;;
67595;SDS011;54410;48.694;8.934;2023-04-25T11:45:27;2.37;;;2.17;;
67595;SDS011;54410;48.694;8.934;2023-04-25T11:47:55;3.30;;;3.00;;
67595;SDS011;54410;48.694;8.934;2023-04-25T11:50:21;3.50;;;3.20;;
67595;SDS011;54410;48.694;8.934;2023-04-25T11:52:47;3.30;;;3.00;;
67595;SDS011;54410;48.694;8.934;2023-04-25T11:55:18;2.80;;;2.60;;
67595;SDS011;54410;48.694;8.934;2023-04-25T11:57:44;4.20;;;2.83;;
67595;SDS011;54410;48.694;8.934;2023-04-25T12:00:15;2.23;;;2.03;;
67595;SDS011;54410;48.694;8.934;2023-04-25T12:02:45;2.30;;;2.10;;
67595;SDS011;54410;48.694;8.934;2023-04-25T12:05:13;3.53;;;2.70;;
67595;SDS011;54410;48.694;8.934;2023-04-25T12:07:40;3.73;;;2.50;;
67595;SDS011;54410;48.694;8.934;2023-04-25T12:10:10;2.93;;;2.73;;
67595;SDS011;54410;48.694;8.934;2023-04-25T12:12:37;3.67;;;3.20;;
67595;SDS011;54410;48.694;8.934;2023-04-25T12:17:36;4.00;;;3.60;;
67595;SDS011;54410;48.694;8.934;2023-04-25T12:20:08;3.20;;;2.80;;
67595;SDS011;54410;48.694;8.934;2023-04-25T12:22:35;3.53;;;3.23;;
67595;SDS011;54410;48.694;8.934;2023-04-25T12:25:01;3.10;;;2.80;;
67595;SDS011;54410;48.694;8.934;2023-04-25T12:27:30;3.70;;;3.27;;
67595;SDS011;54410;48.694;8.934;2023-04-25T12:29:56;4.33;;;3.90;;
67595;SDS011;54410;48.694;8.934;2023-04-25T12:32:22;3.40;;;3.10;;
67595;SDS011;54410;48.694;8.934;2023-04-25T12:34:48;4.30;;;3.33;;
67595;SDS011;54410;48.694;8.934;2023-04-25T12:37:14;3.97;;;3.57;;
67595;SDS011;54410;48.694;8.934;2023-04-25T12:39:40;3.47;;;2.97;;
67595;SDS011;54410;48.694;8.934;2023-04-25T12:42:06;5.97;;;3.23;;
67595;SDS011;54410;48.694;8.934;2023-04-25T12:44:33;3.47;;;3.17;;
67595;SDS011;54410;48.694;8.934;2023-04-25T12:46:59;3.87;;;3.47;;
67595;SDS011;54410;48.694;8.934;2023-04-25T12:49:25;3.47;;;3.13;;
67595;SDS011;54410;48.694;8.934;2023-04-25T12:51:51;3.17;;;2.87;;
67595;SDS011;54410;48.694;8.934;2023-04-25T12:54:17;4.13;;;3.73;;
67595;SDS011;54410;48.694;8.934;2023-04-25T12:56:43;4.50;;;3.87;;
67595;SDS011;54410;48.694;8.934;2023-04-25T12:59:09;3.80;;;3.28;;
67595;SDS011;54410;48.694;8.934;2023-04-25T13:01:35;4.97;;;4.10;;
67595;SDS011;54410;48.694;8.934;2023-04-25T13:04:01;3.20;;;2.90;;
67595;SDS011;54410;48.694;8.934;2023-04-25T13:06:27;3.25;;;2.95;;
67595;SDS011;54410;48.694;8.934;2023-04-25T13:08:54;4.57;;;3.88;;
67595;SDS011;54410;48.694;8.934;2023-04-25T13:11:20;4.00;;;3.22;;
67595;SDS011;54410;48.694;8.934;2023-04-25T13:13:46;3.90;;;3.50;;
67595;SDS011;54410;48.694;8.934;2023-04-25T13:16:12;3.65;;;3.28;;
67595;SDS011;54410;48.694;8.934;2023-04-25T13:18:39;3.22;;;2.85;;
67595;SDS011;54410;48.694;8.934;2023-04-25T13:21:05;4.80;;;3.33;;
67595;SDS011;54410;48.694;8.934;2023-04-25T13:23:31;3.67;;;3.17;;
67595;SDS011;54410;48.694;8.934;2023-04-25T13:25:59;4.82;;;3.05;;
67595;SDS011;54410;48.694;8.934;2023-04-25T13:28:26;4.78;;;3.53;;
67595;SDS011;54410;48.694;8.934;2023-04-25T13:30:52;4.72;;;3.42;;
67595;SDS011;54410;48.694;8.934;2023-04-25T13:33:19;4.05;;;3.50;;
67595;SDS011;54410;48.694;8.934;2023-04-25T13:35:45;3.88;;;3.35;;
67595;SDS011;54410;48.694;8.934;2023-04-25T13:38:12;3.10;;;2.80;;
67595;SDS011;54410;48.694;8.934;2023-04-25T13:40:38;4.25;;;3.28;;
67595;SDS011;54410;48.694;8.934;2023-04-25T13:43:04;5.10;;;4.00;;
67595;SDS011;54410;48.694;8.934;2023-04-25T13:45:31;6.35;;;4.97;;
67595;SDS011;54410;48.694;8.934;2023-04-25T13:47:57;4.85;;;4.13;;
67595;SDS011;54410;48.694;8.934;2023-04-25T13:50:22;5.60;;;4.68;;
67595;SDS011;54410;48.694;8.934;2023-04-25T13:52:48;6.90;;;5.47;;
67595;SDS011;54410;48.694;8.934;2023-04-25T13:55:14;5.95;;;4.63;;
67595;SDS011;54410;48.694;8.934;2023-04-25T13:57:40;9.27;;;5.28;;
67595;SDS011;54410;48.694;8.934;2023-04-25T14:00:07;4.97;;;4.07;;
67595;SDS011;54410;48.694;8.934;2023-04-25T14:02:36;7.38;;;4.88;;
67595;SDS011;54410;48.694;8.934;2023-04-25T14:05:05;6.45;;;4.93;;
67595;SDS011;54410;48.694;8.934;2023-04-25T14:07:33;5.80;;;4.78;;
67595;SDS011;54410;48.694;8.934;2023-04-25T14:10:00;5.50;;;3.55;;
67595;SDS011;54410;48.694;8.934;2023-04-25T14:12:25;3.90;;;3.50;;
67595;SDS011;54410;48.694;8.934;2023-04-25T14:14:51;4.95;;;3.92;;
67595;SDS011;54410;48.694;8.934;2023-04-25T14:17:18;4.55;;;3.95;;
67595;SDS011;54410;48.694;8.934;2023-04-25T14:19:44;5.22;;;3.45;;
67595;SDS011;54410;48.694;8.934;2023-04-25T14:22:12;4.15;;;3.50;;
67595;SDS011;54410;48.694;8.934;2023-04-25T14:24:38;3.85;;;3.45;;
67595;SDS011;54410;48.694;8.934;2023-04-25T14:27:04;5.10;;;3.50;;
67595;SDS011;54410;48.694;8.934;2023-04-25T14:29:30;4.43;;;3.45;;
67595;SDS011;54410;48.694;8.934;2023-04-25T14:31:56;3.80;;;3.40;;
67595;SDS011;54410;48.694;8.934;2023-04-25T14:34:23;3.08;;;2.50;;
67595;SDS011;54410;48.694;8.934;2023-04-25T14:36:49;4.22;;;2.17;;
67595;SDS011;54410;48.694;8.934;2023-04-25T14:39:15;2.58;;;2.38;;
67595;SDS011;54410;48.694;8.934;2023-04-25T14:41:41;2.25;;;2.00;;
67595;SDS011;54410;48.694;8.934;2023-04-25T14:44:07;2.53;;;1.70;;
67595;SDS011;54410;48.694;8.934;2023-04-25T14:46:33;2.28;;;2.03;;
67595;SDS011;54410;48.694;8.934;2023-04-25T14:48:59;2.47;;;1.88;;
67595;SDS011;54410;48.694;8.934;2023-04-25T14:51:25;3.25;;;1.80;;
67595;SDS011;54410;48.694;8.934;2023-04-25T14:53:51;1.85;;;1.75;;
67595;SDS011;54410;48.694;8.934;2023-04-25T14:56:17;2.17;;;1.80;;